createdAt,value
2022-09-30T00:01:37.124Z,73.88
2022-09-30T00:04:05.577Z,73.90
2022-09-30T00:06:35.171Z,73.83
2022-09-30T00:09:03.408Z,74.09
2022-09-30T00:11:33.907Z,74.55
2022-09-30T00:14:02.697Z,74.33
2022-09-30T00:16:32.731Z,74.57
2022-09-30T00:19:03.787Z,74.69
2022-09-30T00:21:33.803Z,74.44
2022-09-30T00:24:02.175Z,74.65
2022-09-30T00:26:30.341Z,75.10
2022-09-30T00:29:00.222Z,75.13
2022-09-30T00:31:30.736Z,75.28
2022-09-30T00:34:11.440Z,75.50
2022-09-30T00:36:44.517Z,75.56
2022-09-30T00:39:14.693Z,75.43
2022-09-30T00:41:42.847Z,75.32
2022-09-30T00:44:45.863Z,75.75
2022-09-30T00:47:39.339Z,76.37
2022-09-30T00:50:16.992Z,76.61
2022-09-30T00:52:50.233Z,76.70
2022-09-30T00:55:27.458Z,76.75
2022-09-30T00:57:58.125Z,76.99
2022-09-30T01:00:26.000Z,76.73
2022-09-30T01:02:55.313Z,77.25
2022-09-30T01:05:24.228Z,77.93
2022-09-30T01:07:54.431Z,78.61
2022-09-30T01:10:22.207Z,79.53
2022-09-30T01:12:50.100Z,79.64
2022-09-30T01:15:18.248Z,79.87
2022-09-30T01:17:55.148Z,79.30
2022-09-30T01:21:02.342Z,79.08
2022-09-30T01:24:08.091Z,79.11
2022-09-30T01:27:10.677Z,79.01
2022-09-30T01:30:05.158Z,79.16
2022-09-30T01:33:17.795Z,79.13
2022-09-30T01:36:02.268Z,79.49
2022-09-30T01:38:37.680Z,80.21
2022-09-30T01:41:10.983Z,80.56
2022-09-30T01:43:46.803Z,81.16
2022-09-30T01:46:22.570Z,81.67
2022-09-30T01:49:00.762Z,81.40
2022-09-30T01:51:36.199Z,81.97
2022-09-30T01:54:11.160Z,82.05
2022-09-30T01:56:43.750Z,82.42
2022-09-30T01:59:15.586Z,82.36
2022-09-30T02:01:48.932Z,82.59
2022-09-30T02:04:21.865Z,82.41
2022-09-30T02:06:53.156Z,82.45
2022-09-30T02:09:26.292Z,82.16
2022-09-30T02:11:57.019Z,81.64
2022-09-30T02:14:29.945Z,81.52
2022-09-30T02:17:03.221Z,81.45
2022-09-30T02:19:38.931Z,81.20
2022-09-30T02:22:11.694Z,81.64
2022-09-30T02:24:44.487Z,81.77
2022-09-30T02:27:20.877Z,81.60
2022-09-30T02:29:54.483Z,81.69
2022-09-30T02:32:26.302Z,81.58
2022-09-30T02:35:01.579Z,81.71
2022-09-30T02:37:35.931Z,81.87
2022-09-30T02:40:10.708Z,81.53
2022-09-30T02:42:41.513Z,81.44
2022-09-30T02:45:13.029Z,81.15
2022-09-30T02:47:57.468Z,81.29
2022-09-30T02:50:33.405Z,81.21
2022-09-30T02:53:18.882Z,81.06
2022-09-30T02:56:02.516Z,81.75
2022-09-30T02:58:31.848Z,81.94
2022-09-30T03:00:59.763Z,81.67
2022-09-30T03:03:31.507Z,81.81
2022-09-30T03:06:00.993Z,81.43
2022-09-30T03:08:28.803Z,81.93
2022-09-30T03:10:56.950Z,82.07
2022-09-30T03:13:52.328Z,82.77
2022-09-30T03:16:31.770Z,83.13
2022-09-30T03:19:16.165Z,83.13
2022-09-30T03:22:00.226Z,83.31
2022-09-30T03:24:56.116Z,83.62
2022-09-30T03:27:32.847Z,83.57
2022-09-30T03:30:05.359Z,83.61
2022-09-30T03:32:52.863Z,83.66
2022-09-30T03:35:30.999Z,83.88
2022-09-30T03:38:05.148Z,83.97
2022-09-30T03:40:42.499Z,84.19
2022-09-30T03:43:19.069Z,84.48
2022-09-30T03:45:51.679Z,83.78
2022-09-30T03:48:22.109Z,83.53
2022-09-30T03:50:50.506Z,83.58
2022-09-30T03:53:19.889Z,83.77
2022-09-30T03:55:49.227Z,83.46
2022-09-30T03:58:18.952Z,83.59
2022-09-30T04:00:50.118Z,83.94
2022-09-30T04:03:18.375Z,83.68
2022-09-30T04:05:46.349Z,83.99
2022-09-30T04:08:14.174Z,83.42
2022-09-30T04:10:44.692Z,83.59
2022-09-30T04:13:13.582Z,82.99
2022-09-30T04:15:41.676Z,83.01
2022-09-30T04:18:09.568Z,82.73
2022-09-30T04:20:39.505Z,82.67
2022-09-30T04:23:07.313Z,83.10
2022-09-30T04:25:35.076Z,83.11
2022-09-30T04:28:04.422Z,82.84
2022-09-30T04:30:33.656Z,82.97
2022-09-30T04:33:01.677Z,82.95
2022-09-30T04:35:30.053Z,82.79
2022-09-30T04:37:57.973Z,82.50
2022-09-30T04:40:26.157Z,82.56
2022-09-30T04:42:58.152Z,82.32
2022-09-30T04:45:27.407Z,82.18
2022-09-30T04:47:55.189Z,82.41
2022-09-30T04:50:22.989Z,82.22
2022-09-30T04:52:51.390Z,82.10
2022-09-30T04:55:19.329Z,82.17
2022-09-30T04:57:47.109Z,82.02
2022-09-30T05:00:14.910Z,82.17
2022-09-30T05:02:45.673Z,82.14
2022-09-30T05:05:13.515Z,82.19
2022-09-30T05:07:41.746Z,82.30
2022-09-30T05:10:11.112Z,82.77
2022-09-30T05:12:40.313Z,82.91
2022-09-30T05:15:09.434Z,82.86
2022-09-30T05:17:37.546Z,82.63
2022-09-30T05:20:10.804Z,82.61
2022-09-30T05:22:39.313Z,83.00
2022-09-30T05:25:08.175Z,83.25
2022-09-30T05:27:36.045Z,83.23
2022-09-30T05:30:04.189Z,83.73
2022-09-30T05:32:32.174Z,83.73
2022-09-30T05:34:59.957Z,84.37
2022-09-30T05:37:29.096Z,84.73
2022-09-30T05:39:57.256Z,84.89
2022-09-30T05:42:25.092Z,85.16
2022-09-30T05:44:52.958Z,85.30
2022-09-30T05:47:20.733Z,85.79
2022-09-30T05:49:49.732Z,85.62
2022-09-30T05:52:19.796Z,85.74
2022-09-30T05:54:49.766Z,85.86
2022-09-30T05:57:17.632Z,86.08
2022-09-30T05:59:45.517Z,85.98
2022-09-30T06:02:14.064Z,85.66
2022-09-30T06:04:42.105Z,85.93
2022-09-30T06:07:10.753Z,85.62
2022-09-30T06:09:39.078Z,85.65
2022-09-30T06:12:09.259Z,85.86
2022-09-30T06:14:37.211Z,86.02
2022-09-30T06:17:06.492Z,86.52
2022-09-30T06:19:34.432Z,86.37
2022-09-30T06:22:02.450Z,86.62
2022-09-30T06:24:31.103Z,86.61
2022-09-30T06:26:58.986Z,86.76
2022-09-30T06:29:28.225Z,86.38
2022-09-30T06:31:56.057Z,86.07
2022-09-30T06:34:24.140Z,85.75
2022-09-30T06:36:52.233Z,85.99
2022-09-30T06:39:20.159Z,85.89
2022-09-30T06:41:48.023Z,85.67
2022-09-30T06:44:25.764Z,85.81
2022-09-30T06:46:55.822Z,85.58
2022-09-30T06:49:24.006Z,85.69
2022-09-30T06:51:52.234Z,85.03
2022-09-30T06:54:20.665Z,84.69
2022-09-30T06:56:48.655Z,84.48
2022-09-30T06:59:17.289Z,83.79
2022-09-30T07:01:45.450Z,83.70
2022-09-30T07:04:14.903Z,83.74
2022-09-30T07:06:43.132Z,83.81
2022-09-30T07:09:12.359Z,84.19
2022-09-30T07:11:40.426Z,83.86
2022-09-30T07:14:10.165Z,83.53
2022-09-30T07:16:38.537Z,83.55
2022-09-30T07:19:10.108Z,83.65
2022-09-30T07:21:39.382Z,83.40
2022-09-30T07:24:07.258Z,83.68
2022-09-30T07:26:35.240Z,83.61
2022-09-30T07:29:03.162Z,83.44
2022-09-30T07:31:34.272Z,83.07
2022-09-30T07:34:03.231Z,83.67
2022-09-30T07:36:33.564Z,83.43
2022-09-30T07:39:06.809Z,83.59
2022-09-30T07:41:36.409Z,83.50
2022-09-30T07:44:06.367Z,83.29
2022-09-30T07:46:38.865Z,83.46
2022-09-30T07:49:09.501Z,82.98
2022-09-30T07:51:39.822Z,83.76
2022-09-30T07:54:12.316Z,83.62
2022-09-30T07:57:08.147Z,83.91
2022-09-30T07:59:31.510Z,84.21
2022-09-30T08:01:59.523Z,84.07
2022-09-30T08:04:28.782Z,84.50
2022-09-30T08:06:59.862Z,84.75
2022-09-30T08:09:31.105Z,84.39
2022-09-30T08:11:59.812Z,84.50
2022-09-30T08:14:29.132Z,84.71
2022-09-30T08:16:58.396Z,84.83
2022-09-30T08:19:27.887Z,85.12
2022-09-30T08:21:56.453Z,84.85
2022-09-30T08:24:24.913Z,84.55
2022-09-30T08:26:54.475Z,84.28
2022-09-30T08:29:50.071Z,84.29
2022-09-30T08:32:10.496Z,83.86
2022-09-30T08:34:38.347Z,83.62
2022-09-30T08:37:09.264Z,83.46
2022-09-30T08:39:37.487Z,83.26
2022-09-30T08:42:38.676Z,83.32
2022-09-30T08:45:20.431Z,82.67
2022-09-30T08:47:57.392Z,82.63
2022-09-30T08:50:31.796Z,81.92
2022-09-30T08:53:03.844Z,81.93
2022-09-30T08:55:39.579Z,82.47
2022-09-30T08:58:20.761Z,82.59
2022-09-30T09:00:51.254Z,83.08
2022-09-30T09:03:21.430Z,83.16
2022-09-30T09:06:00.174Z,83.27
2022-09-30T09:08:41.563Z,83.01
2022-09-30T09:11:18.066Z,83.81
2022-09-30T09:13:52.511Z,83.42
2022-09-30T09:16:31.100Z,83.61
2022-09-30T09:19:02.300Z,83.55
2022-09-30T09:21:41.465Z,83.54
2022-09-30T09:24:17.277Z,83.02
2022-09-30T09:26:45.853Z,83.20
2022-09-30T09:29:39.199Z,83.24
2022-09-30T09:32:14.248Z,83.59
2022-09-30T09:34:42.816Z,83.27
2022-09-30T09:37:21.527Z,83.59
2022-09-30T09:40:04.823Z,83.00
2022-09-30T09:42:43.687Z,83.33
2022-09-30T09:45:22.603Z,83.53
2022-09-30T09:47:52.454Z,83.37
2022-09-30T09:50:26.986Z,84.01
2022-09-30T09:53:35.202Z,83.77
2022-09-30T09:56:04.038Z,83.17
2022-09-30T09:58:34.130Z,83.17
2022-09-30T10:01:32.021Z,83.76
2022-09-30T10:04:21.912Z,83.60
2022-09-30T10:06:52.989Z,83.59
2022-09-30T10:09:27.496Z,83.58
2022-09-30T10:12:36.977Z,83.19
2022-09-30T10:15:16.708Z,83.28
2022-09-30T10:17:52.995Z,82.78
2022-09-30T10:20:28.229Z,82.70
2022-09-30T10:23:05.816Z,82.38
2022-09-30T10:25:33.684Z,81.54
2022-09-30T10:28:03.817Z,81.63
2022-09-30T10:30:43.137Z,81.80
2022-09-30T10:33:21.353Z,81.07
2022-09-30T10:35:54.790Z,81.09
2022-09-30T10:38:24.878Z,80.34
2022-09-30T10:40:53.432Z,80.44
2022-09-30T10:43:26.540Z,80.38
2022-09-30T10:46:13.752Z,80.44
2022-09-30T10:48:50.547Z,80.00
2022-09-30T10:51:29.351Z,79.65
2022-09-30T10:53:58.307Z,79.27
2022-09-30T10:56:44.648Z,78.73
2022-09-30T10:59:35.898Z,78.45
2022-09-30T11:02:27.250Z,78.27
2022-09-30T11:05:04.092Z,78.23
2022-09-30T11:07:36.337Z,77.93
2022-09-30T11:10:12.701Z,78.06
2022-09-30T11:12:45.113Z,78.55
2022-09-30T11:15:19.924Z,78.42
2022-09-30T11:17:54.749Z,78.54
2022-09-30T11:20:28.894Z,78.91
2022-09-30T11:23:03.686Z,78.79
2022-09-30T11:25:40.761Z,78.96
2022-09-30T11:28:38.423Z,78.54
2022-09-30T11:31:18.133Z,78.14
2022-09-30T11:34:01.320Z,77.61
2022-09-30T11:36:42.846Z,76.85
2022-09-30T11:39:37.329Z,76.87
2022-09-30T11:42:12.348Z,76.60
2022-09-30T11:44:44.288Z,76.70
2022-09-30T11:47:29.633Z,76.34
2022-09-30T11:50:25.629Z,76.18
2022-09-30T11:53:08.071Z,75.99
2022-09-30T11:55:52.978Z,75.95
2022-09-30T12:01:21.236Z,75.77
2022-09-30T12:03:59.263Z,76.00
2022-09-30T12:06:33.025Z,76.20
2022-09-30T12:09:10.167Z,76.55
2022-09-30T12:11:44.164Z,76.65
2022-09-30T12:14:20.584Z,76.89
2022-09-30T12:16:51.509Z,76.73
2022-09-30T12:19:26.067Z,76.90
2022-09-30T12:21:59.271Z,76.51
2022-09-30T12:24:36.059Z,76.32
2022-09-30T12:27:05.570Z,76.07
2022-09-30T12:29:56.076Z,75.93
2022-09-30T12:32:48.760Z,75.91
2022-09-30T12:35:31.362Z,75.79
2022-09-30T12:38:17.756Z,76.05
2022-09-30T12:41:07.519Z,76.30
2022-09-30T12:44:13.428Z,75.83
2022-09-30T12:46:55.374Z,75.86
2022-09-30T12:49:26.468Z,75.64
2022-09-30T12:51:58.998Z,75.08
2022-09-30T12:54:31.497Z,75.08
2022-09-30T12:57:03.891Z,75.19
2022-09-30T12:59:34.893Z,75.10
2022-09-30T13:02:04.380Z,74.86
2022-09-30T13:04:35.477Z,74.93
2022-09-30T13:07:17.107Z,74.79
2022-09-30T13:10:07.585Z,74.62
2022-09-30T13:12:45.724Z,74.76
2022-09-30T13:15:39.558Z,75.41
2022-09-30T13:18:45.162Z,75.86
2022-09-30T13:21:23.482Z,76.25
2022-09-30T13:23:52.093Z,75.99
2022-09-30T13:26:38.073Z,75.91
2022-09-30T13:29:35.469Z,74.79
2022-09-30T13:32:05.817Z,74.25
2022-09-30T13:34:36.441Z,73.66
2022-09-30T13:37:05.658Z,72.91
2022-09-30T13:39:46.608Z,72.65
2022-09-30T13:42:24.491Z,71.99
2022-09-30T13:45:03.176Z,71.53
2022-09-30T13:47:37.096Z,71.20
2022-09-30T13:50:16.060Z,71.13
2022-09-30T13:52:46.783Z,70.99
2022-09-30T13:55:19.709Z,71.38
2022-09-30T13:58:00.549Z,71.36
2022-09-30T14:00:46.458Z,71.54
2022-09-30T14:03:32.565Z,71.75
2022-09-30T14:06:12.242Z,72.48
2022-09-30T14:09:03.650Z,72.90
2022-09-30T14:11:43.933Z,73.70
2022-09-30T14:14:30.007Z,74.01
2022-09-30T14:17:22.891Z,74.92
2022-09-30T14:20:13.443Z,75.29
2022-09-30T14:22:42.888Z,76.33
2022-09-30T14:25:15.573Z,76.21
2022-09-30T14:27:56.172Z,76.77
2022-09-30T14:30:25.647Z,76.66
2022-09-30T14:32:58.151Z,77.12
2022-09-30T14:36:21.251Z,77.45
2022-09-30T14:38:55.340Z,77.58
2022-09-30T14:41:24.919Z,77.90
2022-09-30T14:43:56.836Z,77.89
2022-09-30T14:46:32.347Z,78.08
2022-09-30T14:49:06.715Z,78.89
2022-09-30T14:51:43.676Z,79.18
2022-09-30T14:54:19.331Z,79.04
2022-09-30T14:56:48.169Z,79.22
2022-09-30T14:59:21.005Z,79.42
2022-09-30T15:01:51.560Z,80.25
2022-09-30T15:04:25.422Z,80.32
2022-09-30T15:06:55.048Z,80.34
2022-09-30T15:09:28.344Z,80.69
2022-09-30T15:11:56.391Z,81.21
2022-09-30T15:14:25.852Z,80.67
2022-09-30T15:16:55.531Z,81.19
2022-09-30T15:19:26.051Z,80.45
2022-09-30T15:21:55.878Z,80.73
2022-09-30T15:24:27.259Z,80.33
2022-09-30T15:26:57.090Z,80.34
2022-09-30T15:29:25.179Z,80.56
2022-09-30T15:32:00.245Z,80.92
2022-09-30T15:34:30.493Z,80.53
2022-09-30T15:37:06.264Z,80.73
2022-09-30T15:39:54.329Z,80.31
2022-09-30T15:42:36.211Z,80.71
2022-09-30T15:45:06.231Z,80.37
2022-09-30T15:47:34.276Z,80.65
2022-09-30T15:50:03.701Z,80.47
2022-09-30T15:52:37.994Z,80.42
2022-09-30T15:55:38.564Z,80.37
2022-09-30T15:58:33.745Z,80.53
2022-09-30T16:01:15.109Z,80.29
2022-09-30T16:03:50.288Z,80.12
2022-09-30T16:06:25.329Z,80.30
2022-09-30T16:09:01.548Z,80.37
2022-09-30T16:11:37.074Z,80.64
2022-09-30T16:14:08.881Z,80.13
2022-09-30T16:16:38.994Z,80.59
2022-09-30T16:19:07.639Z,80.96
2022-09-30T16:21:44.926Z,80.86
2022-09-30T16:24:47.990Z,80.71
2022-09-30T16:27:36.841Z,80.90
2022-09-30T16:30:06.538Z,81.18
2022-09-30T16:32:39.793Z,81.13
2022-09-30T16:35:16.017Z,81.46
2022-09-30T16:37:45.327Z,81.26
2022-09-30T16:40:25.191Z,81.60
2022-09-30T16:42:54.816Z,81.53
2022-09-30T16:45:23.584Z,81.37
2022-09-30T16:47:51.873Z,81.82
2022-09-30T16:50:29.244Z,82.14
2022-09-30T16:52:58.422Z,82.01
2022-09-30T16:55:27.201Z,82.24
2022-09-30T16:57:57.176Z,82.20
2022-09-30T17:00:25.926Z,82.19
2022-09-30T17:02:53.973Z,81.88
2022-09-30T17:05:24.240Z,81.91
2022-09-30T17:07:54.240Z,81.69
2022-09-30T17:10:25.773Z,82.47
2022-09-30T17:12:53.669Z,82.26
2022-09-30T17:15:21.696Z,82.60
2022-09-30T17:17:49.595Z,82.95
2022-09-30T17:20:17.480Z,82.75
2022-09-30T17:22:45.818Z,82.69
2022-09-30T17:25:14.226Z,82.66
2022-09-30T17:27:43.894Z,82.48
2022-09-30T17:30:12.637Z,82.63
2022-09-30T17:32:40.688Z,82.62
2022-09-30T17:35:09.245Z,82.90
2022-09-30T17:37:41.325Z,83.04
2022-09-30T17:40:26.045Z,83.33
2022-09-30T17:43:11.538Z,82.86
2022-09-30T17:45:42.102Z,82.92
2022-09-30T17:48:10.779Z,83.08
2022-09-30T17:50:39.683Z,83.06
2022-09-30T17:53:07.591Z,82.87
2022-09-30T17:55:35.556Z,83.03
2022-09-30T17:58:04.773Z,83.34
2022-09-30T18:00:33.570Z,83.25
2022-09-30T18:03:02.775Z,83.63
2022-09-30T18:05:30.679Z,83.67
2022-09-30T18:07:58.552Z,83.87
2022-09-30T18:10:27.165Z,83.78
2022-09-30T18:12:55.780Z,83.50
2022-09-30T18:15:26.219Z,83.54
2022-09-30T18:17:54.076Z,83.24
2022-09-30T18:20:24.842Z,82.99
2022-09-30T18:22:53.831Z,83.05
2022-09-30T18:25:22.624Z,82.84
2022-09-30T18:27:52.018Z,82.94
2022-09-30T18:30:21.609Z,82.97
2022-09-30T18:32:52.087Z,83.27
2022-09-30T18:35:22.860Z,82.97
2022-09-30T18:37:51.297Z,82.93
2022-09-30T18:40:21.675Z,82.99
2022-09-30T18:42:49.702Z,82.74
2022-09-30T18:45:17.506Z,82.77
2022-09-30T18:47:45.763Z,83.10
2022-09-30T18:50:17.893Z,82.89
2022-09-30T18:52:45.690Z,82.31
2022-09-30T18:55:13.572Z,82.74
2022-09-30T18:57:41.710Z,82.45
2022-09-30T19:00:11.020Z,82.15
2022-09-30T19:02:40.604Z,81.89
2022-09-30T19:05:09.453Z,82.06
2022-09-30T19:07:39.407Z,82.45
2022-09-30T19:10:08.485Z,82.54
2022-09-30T19:12:37.938Z,82.31
2022-09-30T19:15:07.019Z,82.92
2022-09-30T19:17:37.117Z,82.90
2022-09-30T19:20:06.743Z,83.13
2022-09-30T19:22:37.066Z,83.25
2022-09-30T19:25:08.412Z,83.66
2022-09-30T19:27:37.735Z,83.39
2022-09-30T19:30:08.577Z,83.29
2022-09-30T19:32:36.996Z,83.15
2022-09-30T19:35:09.292Z,83.23
2022-09-30T19:37:37.543Z,83.09
2022-09-30T19:40:20.527Z,82.84
2022-09-30T19:42:49.988Z,83.43
2022-09-30T19:45:22.385Z,83.74
2022-09-30T19:47:51.008Z,84.20
2022-09-30T19:50:18.914Z,83.74
2022-09-30T19:52:56.032Z,83.76
2022-09-30T19:55:27.799Z,83.71
2022-09-30T19:57:55.835Z,83.74
2022-09-30T20:00:24.101Z,83.38
2022-09-30T20:02:52.657Z,83.79
2022-09-30T20:05:22.217Z,83.69
2022-09-30T20:07:51.323Z,83.89
2022-09-30T20:10:19.742Z,83.80
2022-09-30T20:12:49.116Z,83.85
2022-09-30T20:15:34.709Z,83.82
2022-09-30T20:18:02.823Z,83.89
2022-09-30T20:20:38.391Z,83.42
2022-09-30T20:23:06.281Z,83.67
2022-09-30T20:25:36.263Z,83.19
2022-09-30T20:28:07.129Z,83.38
2022-09-30T20:30:45.443Z,83.36
2022-09-30T20:33:18.007Z,83.52
2022-09-30T20:35:46.598Z,83.29
2022-09-30T20:38:17.316Z,83.09
2022-09-30T20:40:45.361Z,83.21
2022-09-30T20:43:14.678Z,83.90
2022-09-30T20:45:42.636Z,84.00
2022-09-30T20:48:10.532Z,83.80
2022-09-30T20:50:43.429Z,83.81
2022-09-30T20:53:13.656Z,83.78
2022-09-30T20:55:44.390Z,83.73
2022-09-30T20:58:14.234Z,83.84
2022-09-30T21:00:43.258Z,83.93
2022-09-30T21:03:13.362Z,83.81
2022-09-30T21:05:41.676Z,83.97
2022-09-30T21:08:11.464Z,83.33
2022-09-30T21:10:39.230Z,83.95
2022-09-30T21:13:11.379Z,83.63
2022-09-30T21:15:40.583Z,83.09
2022-09-30T21:18:08.974Z,83.32
2022-09-30T21:20:37.094Z,83.09
2022-09-30T21:23:05.099Z,82.83
2022-09-30T21:25:33.447Z,83.52
2022-09-30T21:28:01.715Z,84.02
2022-09-30T21:30:30.350Z,84.46
2022-09-30T21:32:59.457Z,84.97
2022-09-30T21:35:27.235Z,85.55
2022-09-30T21:37:55.079Z,86.08
2022-09-30T21:40:22.804Z,85.99
2022-09-30T21:42:50.613Z,86.18
2022-09-30T21:45:19.964Z,86.28
2022-09-30T21:47:47.728Z,86.46
2022-09-30T21:50:17.151Z,87.07
2022-09-30T21:52:45.228Z,86.98
2022-09-30T21:55:13.721Z,86.68
2022-09-30T21:57:41.501Z,86.10
2022-09-30T22:00:10.689Z,85.82
2022-09-30T22:02:41.863Z,85.66
2022-09-30T22:05:10.239Z,85.24
2022-09-30T22:07:39.858Z,85.47
2022-09-30T22:10:08.864Z,85.45
2022-09-30T22:12:36.662Z,86.04
2022-09-30T22:15:04.921Z,85.63
2022-09-30T22:17:32.750Z,85.66
2022-09-30T22:20:01.040Z,85.09
2022-09-30T22:22:28.921Z,84.58
2022-09-30T22:24:58.013Z,84.74
2022-09-30T22:27:25.856Z,85.35
2022-09-30T22:29:53.599Z,86.02
2022-09-30T22:32:21.404Z,86.46
2022-09-30T22:35:06.777Z,87.40
2022-09-30T22:37:52.022Z,88.10
2022-09-30T22:40:21.169Z,88.89
2022-09-30T22:42:48.935Z,89.14
2022-09-30T22:45:16.773Z,88.75
2022-09-30T22:47:44.547Z,88.18
2022-09-30T22:50:12.378Z,88.30
2022-09-30T22:52:40.172Z,88.45
2022-09-30T22:55:08.560Z,88.83
2022-09-30T22:57:37.819Z,89.10
2022-09-30T23:00:06.429Z,88.92
2022-09-30T23:02:34.316Z,89.33
2022-09-30T23:05:02.185Z,89.70
2022-09-30T23:07:31.162Z,90.01
2022-09-30T23:09:58.983Z,89.71
2022-09-30T23:12:26.826Z,89.68
2022-09-30T23:14:57.412Z,89.65
2022-09-30T23:17:25.281Z,89.71
2022-09-30T23:19:53.088Z,89.11
2022-09-30T23:22:20.867Z,88.69
2022-09-30T23:24:48.696Z,89.32
2022-09-30T23:27:16.478Z,89.35
2022-09-30T23:29:44.412Z,89.15
2022-09-30T23:32:13.545Z,88.91
2022-09-30T23:34:41.399Z,88.92
2022-09-30T23:37:09.241Z,88.53
2022-09-30T23:39:36.985Z,88.60
2022-09-30T23:42:04.795Z,88.39
2022-09-30T23:44:32.539Z,88.43
2022-09-30T23:47:18.517Z,87.98
2022-09-30T23:49:47.941Z,87.43
2022-09-30T23:52:16.058Z,87.15
2022-09-30T23:54:44.499Z,87.03
2022-09-30T23:57:12.804Z,86.85
2022-09-30T23:59:40.633Z,86.77
